createdAt,value
2023-01-09T00:01:20.416Z,32.30
2023-01-09T00:03:47.515Z,34.20
2023-01-09T00:06:14.620Z,34.20
2023-01-09T00:08:43.828Z,34.50
2023-01-09T00:11:10.777Z,33.70
2023-01-09T00:13:38.650Z,33.70
2023-01-09T00:16:07.464Z,33.40
2023-01-09T00:18:35.609Z,34.30
2023-01-09T00:21:04.627Z,32.00
2023-01-09T00:23:31.775Z,34.40
2023-01-09T00:26:13.431Z,34.00
2023-01-09T00:28:41.148Z,33.50
2023-01-09T00:31:09.809Z,33.30
2023-01-09T00:33:41.063Z,32.80
2023-01-09T00:36:08.853Z,32.50
2023-01-09T00:38:37.563Z,33.10
2023-01-09T00:41:08.178Z,32.20
2023-01-09T00:43:40.172Z,32.00
2023-01-09T00:46:08.537Z,34.50
2023-01-09T00:48:39.237Z,32.70
2023-01-09T00:51:08.336Z,32.90
2023-01-09T00:53:40.711Z,31.80
2023-01-09T00:56:12.654Z,32.40
2023-01-09T00:58:39.935Z,31.70
2023-01-09T01:01:06.928Z,30.30
2023-01-09T01:03:33.923Z,31.60
2023-01-09T01:06:19.419Z,31.80
2023-01-09T01:08:46.769Z,31.80
2023-01-09T01:11:13.731Z,32.00
2023-01-09T01:13:41.708Z,30.10
2023-01-09T01:16:12.122Z,33.00
2023-01-09T01:18:40.214Z,32.00
2023-01-09T01:21:11.914Z,30.90
2023-01-09T01:23:38.909Z,31.00
2023-01-09T01:26:16.656Z,31.40
2023-01-09T01:28:43.559Z,31.90
2023-01-09T01:31:17.362Z,32.90
2023-01-09T01:33:44.416Z,31.50
2023-01-09T01:36:11.372Z,31.90
2023-01-09T01:38:38.318Z,30.10
2023-01-09T01:41:05.838Z,31.60
2023-01-09T01:43:55.624Z,32.30
2023-01-09T01:46:23.220Z,31.20
2023-01-09T01:48:55.287Z,33.00
2023-01-09T01:51:25.046Z,35.50
2023-01-09T01:53:55.755Z,34.80
2023-01-09T01:56:37.959Z,32.50
2023-01-09T01:59:17.478Z,30.00
2023-01-09T02:01:48.786Z,29.50
2023-01-09T02:04:16.180Z,29.30
2023-01-09T02:06:46.620Z,28.40
2023-01-09T02:09:15.556Z,29.20
2023-01-09T02:11:46.589Z,30.20
2023-01-09T02:14:15.953Z,28.00
2023-01-09T02:17:09.104Z,29.40
2023-01-09T02:19:48.128Z,29.00
2023-01-09T02:22:43.843Z,29.40
2023-01-09T02:25:39.642Z,29.80
2023-01-09T02:28:20.612Z,32.90
2023-01-09T02:30:57.368Z,34.40
2023-01-09T02:34:12.544Z,31.30
2023-01-09T02:37:01.123Z,30.00
2023-01-09T02:39:31.418Z,28.80
2023-01-09T02:42:06.037Z,29.20
2023-01-09T02:44:36.230Z,29.40
2023-01-09T02:47:29.626Z,30.10
2023-01-09T02:50:02.188Z,29.80
2023-01-09T02:52:48.827Z,29.60
2023-01-09T02:55:54.220Z,28.10
2023-01-09T02:58:39.688Z,28.10
2023-01-09T03:01:24.981Z,27.80
2023-01-09T03:04:13.401Z,27.70
2023-01-09T03:06:56.107Z,27.90
2023-01-09T03:09:27.706Z,28.20
2023-01-09T03:12:01.887Z,27.70
2023-01-09T03:14:32.484Z,27.30
2023-01-09T03:17:11.733Z,28.10
2023-01-09T03:19:39.190Z,31.90
2023-01-09T03:22:08.256Z,30.40
2023-01-09T03:24:35.141Z,28.60
2023-01-09T03:27:02.908Z,28.10
2023-01-09T03:29:30.067Z,28.20
2023-01-09T03:31:57.614Z,28.40
2023-01-09T03:34:24.576Z,27.70
2023-01-09T03:36:51.738Z,26.60
2023-01-09T03:39:18.682Z,27.40
2023-01-09T03:41:45.489Z,27.90
2023-01-09T03:44:12.385Z,27.20
2023-01-09T03:46:39.231Z,26.00
2023-01-09T03:49:06.187Z,26.40
2023-01-09T03:51:33.131Z,27.40
2023-01-09T03:54:00.108Z,26.50
2023-01-09T03:56:27.032Z,26.80
2023-01-09T03:58:53.895Z,27.10
2023-01-09T04:01:20.915Z,27.00
2023-01-09T04:03:48.239Z,27.00
2023-01-09T04:06:15.243Z,25.80
2023-01-09T04:08:42.194Z,27.60
2023-01-09T04:11:09.876Z,26.80
2023-01-09T04:13:36.815Z,25.70
2023-01-09T04:16:03.933Z,26.50
2023-01-09T04:18:31.125Z,25.70
2023-01-09T04:20:58.685Z,27.60
2023-01-09T04:23:25.532Z,27.60
2023-01-09T04:25:52.486Z,29.90
2023-01-09T04:28:22.733Z,30.30
2023-01-09T04:30:49.670Z,28.80
2023-01-09T04:33:16.617Z,28.30
2023-01-09T04:35:43.569Z,25.90
2023-01-09T04:38:10.412Z,26.70
2023-01-09T04:40:37.259Z,25.60
2023-01-09T04:43:04.108Z,26.00
2023-01-09T04:45:34.088Z,25.70
2023-01-09T04:48:01.586Z,25.20
2023-01-09T04:50:28.745Z,25.40
2023-01-09T04:52:57.843Z,24.20
2023-01-09T04:55:25.014Z,25.70
2023-01-09T04:57:52.157Z,23.30
2023-01-09T05:00:19.309Z,25.80
2023-01-09T05:02:46.162Z,24.80
2023-01-09T05:05:13.108Z,24.50
2023-01-09T05:07:40.683Z,24.30
2023-01-09T05:10:10.231Z,25.20
2023-01-09T05:12:37.359Z,24.60
2023-01-09T05:15:05.821Z,25.30
2023-01-09T05:17:32.772Z,25.20
2023-01-09T05:20:01.113Z,23.40
2023-01-09T05:22:29.031Z,24.20
2023-01-09T05:24:55.976Z,23.20
2023-01-09T05:27:22.937Z,22.80
2023-01-09T05:29:49.825Z,23.50
2023-01-09T05:32:16.734Z,24.50
2023-01-09T05:34:43.677Z,24.00
2023-01-09T05:37:10.528Z,22.90
2023-01-09T05:39:37.497Z,25.00
2023-01-09T05:42:04.649Z,23.50
2023-01-09T05:44:31.462Z,23.50
2023-01-09T05:46:58.330Z,23.50
2023-01-09T05:49:25.278Z,22.60
2023-01-09T05:51:52.127Z,22.10
2023-01-09T05:54:18.990Z,23.20
2023-01-09T05:56:45.821Z,21.60
2023-01-09T05:59:12.676Z,21.50
2023-01-09T06:01:39.620Z,21.60
2023-01-09T06:04:06.468Z,22.20
2023-01-09T06:06:33.417Z,22.30
2023-01-09T06:09:00.366Z,22.40
2023-01-09T06:11:27.326Z,21.20
2023-01-09T06:13:54.273Z,21.40
2023-01-09T06:16:21.147Z,22.40
2023-01-09T06:18:48.172Z,21.10
2023-01-09T06:21:15.141Z,21.60
2023-01-09T06:23:42.091Z,21.50
2023-01-09T06:26:09.125Z,20.30
2023-01-09T06:28:36.076Z,22.10
2023-01-09T06:31:03.203Z,20.40
2023-01-09T06:33:30.594Z,21.40
2023-01-09T06:35:57.438Z,23.10
2023-01-09T06:38:24.351Z,21.40
2023-01-09T06:40:51.237Z,19.80
2023-01-09T06:43:18.088Z,20.60
2023-01-09T06:45:45.237Z,21.30
2023-01-09T06:48:12.724Z,22.40
2023-01-09T06:50:39.667Z,21.90
2023-01-09T06:53:07.228Z,22.50
2023-01-09T06:55:34.195Z,21.50
2023-01-09T06:58:01.127Z,20.40
2023-01-09T07:00:28.500Z,22.40
2023-01-09T07:02:55.429Z,20.30
2023-01-09T07:05:22.585Z,20.50
2023-01-09T07:07:49.500Z,22.00
2023-01-09T07:10:16.385Z,19.80
2023-01-09T07:12:43.456Z,21.10
2023-01-09T07:15:11.316Z,19.50
2023-01-09T07:17:38.473Z,20.40
2023-01-09T07:20:06.230Z,20.20
2023-01-09T07:22:33.288Z,20.60
2023-01-09T07:25:00.248Z,20.20
2023-01-09T07:27:27.290Z,21.20
2023-01-09T07:29:54.345Z,19.50
2023-01-09T07:32:21.393Z,20.40
2023-01-09T07:34:49.475Z,21.20
2023-01-09T07:37:16.424Z,19.70
2023-01-09T07:39:44.225Z,21.50
2023-01-09T07:42:11.968Z,20.00
2023-01-09T07:44:38.807Z,18.60
2023-01-09T07:47:05.867Z,19.30
2023-01-09T07:49:33.021Z,19.90
2023-01-09T07:51:59.969Z,19.80
2023-01-09T07:54:26.927Z,18.70
2023-01-09T07:56:54.190Z,20.40
2023-01-09T07:59:21.128Z,22.70
2023-01-09T08:01:48.157Z,20.40
2023-01-09T08:04:15.235Z,19.80
2023-01-09T08:06:42.182Z,19.70
2023-01-09T08:09:09.541Z,21.50
2023-01-09T08:11:36.602Z,20.90
2023-01-09T08:14:04.059Z,20.60
2023-01-09T08:16:31.007Z,20.80
2023-01-09T08:18:57.970Z,20.30
2023-01-09T08:21:25.422Z,18.40
2023-01-09T08:23:52.369Z,18.10
2023-01-09T08:26:20.040Z,17.50
2023-01-09T08:28:47.197Z,18.40
2023-01-09T08:31:15.330Z,20.00
2023-01-09T08:33:42.937Z,18.20
2023-01-09T08:36:10.224Z,17.90
2023-01-09T08:38:37.993Z,19.60
2023-01-09T08:41:24.977Z,19.30
2023-01-09T08:44:11.060Z,20.90
2023-01-09T08:46:57.158Z,19.30
2023-01-09T08:49:24.100Z,18.30
2023-01-09T08:51:51.383Z,17.40
2023-01-09T08:54:18.325Z,17.10
2023-01-09T08:56:45.482Z,16.80
2023-01-09T08:59:13.977Z,17.90
2023-01-09T09:01:41.070Z,18.20
2023-01-09T09:04:08.257Z,18.20
2023-01-09T09:06:38.293Z,17.10
2023-01-09T09:09:06.789Z,18.50
2023-01-09T09:11:37.496Z,19.10
2023-01-09T09:14:25.428Z,17.70
2023-01-09T09:16:53.443Z,19.30
2023-01-09T09:19:20.580Z,18.10
2023-01-09T09:21:47.716Z,18.80
2023-01-09T09:24:14.796Z,19.10
2023-01-09T09:26:43.782Z,19.40
2023-01-09T09:29:11.857Z,18.90
2023-01-09T09:31:39.267Z,20.70
2023-01-09T09:34:07.889Z,18.40
2023-01-09T09:36:35.087Z,18.90
2023-01-09T09:39:03.030Z,18.30
2023-01-09T09:42:08.246Z,18.70
2023-01-09T09:44:54.394Z,19.20
2023-01-09T09:47:43.601Z,19.10
2023-01-09T09:50:22.916Z,20.60
2023-01-09T09:52:59.316Z,22.00
2023-01-09T09:55:38.862Z,19.00
2023-01-09T09:58:11.632Z,19.70
2023-01-09T10:00:38.656Z,19.70
2023-01-09T10:03:12.139Z,18.80
2023-01-09T10:05:46.600Z,18.50
2023-01-09T10:08:25.889Z,19.70
2023-01-09T10:10:55.772Z,21.00
2023-01-09T10:16:28.806Z,20.50
2023-01-09T10:19:19.625Z,19.30
2023-01-09T10:22:14.000Z,19.90
2023-01-09T10:24:50.163Z,20.40
2023-01-09T10:27:41.481Z,20.40
2023-01-09T10:30:14.360Z,20.20
2023-01-09T10:32:47.436Z,20.70
2023-01-09T10:35:47.603Z,20.30
2023-01-09T10:38:23.507Z,19.40
2023-01-09T10:41:07.954Z,19.70
2023-01-09T10:43:47.699Z,20.70
2023-01-09T10:46:30.931Z,20.50
2023-01-09T10:49:07.388Z,20.40
2023-01-09T10:51:48.555Z,19.50
2023-01-09T10:54:19.354Z,19.50
2023-01-09T10:57:25.857Z,20.50
2023-01-09T10:59:52.872Z,20.60
2023-01-09T11:02:31.381Z,23.30
2023-01-09T11:04:58.365Z,24.50
2023-01-09T11:07:31.075Z,23.50
2023-01-09T11:10:09.992Z,22.90
2023-01-09T11:12:37.225Z,22.10
2023-01-09T11:15:16.925Z,23.80
2023-01-09T11:17:44.856Z,23.10
2023-01-09T11:20:20.422Z,24.00
2023-01-09T11:22:53.694Z,23.50
2023-01-09T11:25:23.186Z,23.50
2023-01-09T11:28:08.572Z,22.10
2023-01-09T11:30:37.367Z,21.30
2023-01-09T11:33:26.315Z,22.00
2023-01-09T11:36:11.197Z,23.70
2023-01-09T11:38:54.256Z,22.10
2023-01-09T11:41:24.019Z,21.80
2023-01-09T11:43:53.005Z,22.10
2023-01-09T11:46:49.460Z,22.30
2023-01-09T11:49:25.237Z,22.10
2023-01-09T11:52:16.349Z,21.80
2023-01-09T11:54:54.481Z,23.00
2023-01-09T11:57:24.453Z,25.10
2023-01-09T12:02:37.548Z,23.10
2023-01-09T12:05:23.124Z,25.00
2023-01-09T12:07:50.072Z,24.90
2023-01-09T12:10:29.713Z,23.90
2023-01-09T12:13:34.107Z,23.70
2023-01-09T12:16:03.963Z,24.60
2023-01-09T12:21:23.347Z,25.90
2023-01-09T12:24:14.734Z,26.40
2023-01-09T12:27:06.968Z,29.20
2023-01-09T12:29:55.491Z,29.20
2023-01-09T12:32:28.676Z,28.20
2023-01-09T12:35:14.163Z,25.50
2023-01-09T12:37:50.882Z,33.10
2023-01-09T12:40:32.407Z,48.30
2023-01-09T12:43:16.758Z,46.50
2023-01-09T12:46:05.493Z,33.00
2023-01-09T12:48:47.814Z,36.50
2023-01-09T12:51:20.793Z,33.60
2023-01-09T12:53:52.169Z,40.50
2023-01-09T12:56:26.472Z,37.60
2023-01-09T12:59:02.105Z,44.40
2023-01-09T13:01:45.493Z,32.90
2023-01-09T13:04:34.917Z,33.40
2023-01-09T13:07:12.192Z,44.50
2023-01-09T13:09:55.236Z,39.50
2023-01-09T13:12:25.369Z,38.50
2023-01-09T13:15:01.000Z,36.80
2023-01-09T13:17:43.790Z,33.50
2023-01-09T13:20:22.819Z,29.40
2023-01-09T13:22:51.209Z,31.10
2023-01-09T13:25:33.660Z,34.60
2023-01-09T13:28:23.573Z,30.20
2023-01-09T13:31:09.147Z,32.80
2023-01-09T13:33:39.788Z,31.80
2023-01-09T13:36:07.140Z,31.90
2023-01-09T13:38:38.915Z,31.10
2023-01-09T13:41:34.401Z,28.70
2023-01-09T13:44:08.098Z,30.20
2023-01-09T13:46:39.263Z,28.80
2023-01-09T13:49:08.463Z,30.50
2023-01-09T13:51:37.158Z,31.10
2023-01-09T13:54:04.923Z,31.80
2023-01-09T13:56:32.279Z,29.30
2023-01-09T13:59:02.319Z,33.70
2023-01-09T14:01:36.344Z,30.60
2023-01-09T14:04:14.735Z,26.90
2023-01-09T14:06:45.268Z,27.70
2023-01-09T14:09:15.274Z,30.50
2023-01-09T14:11:43.970Z,30.00
2023-01-09T14:14:29.117Z,28.10
2023-01-09T14:16:59.541Z,33.20
2023-01-09T14:19:34.610Z,27.70
2023-01-09T14:22:02.647Z,27.70
2023-01-09T14:24:32.289Z,28.70
2023-01-09T14:27:02.041Z,29.70
2023-01-09T14:29:29.612Z,27.40
2023-01-09T14:32:26.706Z,29.30
2023-01-09T14:35:18.109Z,26.10
2023-01-09T14:37:51.605Z,28.70
2023-01-09T14:40:23.671Z,26.20
2023-01-09T14:42:58.314Z,27.70
2023-01-09T14:45:27.398Z,31.00
2023-01-09T14:48:03.879Z,28.00
2023-01-09T14:50:51.496Z,28.60
2023-01-09T14:53:24.275Z,30.40
2023-01-09T14:55:59.471Z,28.50
2023-01-09T14:58:32.429Z,26.20
2023-01-09T15:01:19.257Z,27.30
2023-01-09T15:03:51.795Z,26.30
2023-01-09T15:06:21.706Z,25.30
2023-01-09T15:11:21.550Z,25.10
2023-01-09T15:13:51.544Z,25.60
2023-01-09T15:18:54.110Z,24.80
2023-01-09T15:21:27.504Z,27.00
2023-01-09T15:23:55.023Z,27.90
2023-01-09T15:26:29.247Z,27.40
2023-01-09T15:29:16.368Z,28.00
2023-01-09T15:31:45.901Z,29.60
2023-01-09T15:34:19.850Z,30.20
2023-01-09T15:36:49.475Z,29.30
2023-01-09T15:39:27.140Z,25.40
2023-01-09T15:42:14.493Z,23.90
2023-01-09T15:44:44.024Z,22.70
2023-01-09T15:47:22.099Z,24.40
2023-01-09T15:49:50.790Z,24.60
2023-01-09T15:52:23.885Z,23.40
2023-01-09T15:54:51.456Z,23.10
2023-01-09T15:57:24.443Z,22.00
2023-01-09T15:59:52.305Z,25.50
2023-01-09T16:02:40.043Z,24.30
2023-01-09T16:05:15.260Z,24.00
2023-01-09T16:07:47.641Z,23.90
2023-01-09T16:10:35.160Z,24.80
2023-01-09T16:13:03.241Z,21.80
2023-01-09T16:15:34.956Z,22.20
2023-01-09T16:18:29.274Z,21.90
2023-01-09T16:21:12.907Z,21.10
2023-01-09T16:23:52.030Z,21.20
2023-01-09T16:26:23.856Z,19.80
2023-01-09T16:28:51.158Z,19.70
2023-01-09T16:31:31.664Z,19.30
2023-01-09T16:34:06.580Z,20.10
2023-01-09T16:36:37.633Z,20.50
2023-01-09T16:39:05.261Z,22.20
2023-01-09T16:41:50.739Z,21.00
2023-01-09T16:44:19.621Z,21.30
2023-01-09T16:46:46.792Z,20.20
2023-01-09T16:49:23.582Z,19.20
2023-01-09T16:51:51.853Z,19.10
2023-01-09T16:54:20.032Z,20.50
2023-01-09T16:56:54.465Z,19.10
2023-01-09T16:59:26.948Z,19.40
2023-01-09T17:01:55.263Z,20.70
2023-01-09T17:04:26.617Z,19.80
2023-01-09T17:06:53.809Z,19.60
2023-01-09T17:09:24.589Z,20.30
2023-01-09T17:11:53.044Z,18.80
2023-01-09T17:14:20.231Z,18.80
2023-01-09T17:16:48.743Z,20.40
2023-01-09T17:19:19.341Z,19.80
2023-01-09T17:21:46.677Z,21.10
2023-01-09T17:24:33.181Z,19.90
2023-01-09T17:27:20.616Z,20.50
2023-01-09T17:29:48.407Z,19.80
2023-01-09T17:32:17.225Z,19.50
2023-01-09T17:34:44.391Z,19.40
2023-01-09T17:37:19.323Z,19.60
2023-01-09T17:39:47.183Z,19.60
2023-01-09T17:42:14.400Z,18.90
2023-01-09T17:44:42.088Z,19.60
2023-01-09T17:47:18.920Z,19.10
2023-01-09T17:49:45.951Z,18.80
2023-01-09T17:52:13.555Z,19.00
2023-01-09T17:54:41.606Z,18.80
2023-01-09T17:57:15.555Z,18.10
2023-01-09T17:59:43.018Z,20.40
2023-01-09T18:02:18.600Z,18.20
2023-01-09T18:04:46.058Z,19.20
2023-01-09T18:07:16.806Z,17.70
2023-01-09T18:09:44.955Z,18.50
2023-01-09T18:12:15.362Z,18.10
2023-01-09T18:14:43.344Z,18.70
2023-01-09T18:17:13.642Z,19.20
2023-01-09T18:19:41.348Z,19.70
2023-01-09T18:22:08.406Z,19.00
2023-01-09T18:24:35.512Z,19.80
2023-01-09T18:27:02.731Z,18.50
2023-01-09T18:29:29.676Z,17.80
2023-01-09T18:31:58.437Z,18.60
2023-01-09T18:34:27.097Z,21.70
2023-01-09T18:36:54.168Z,22.50
2023-01-09T18:39:22.807Z,19.20
2023-01-09T18:41:49.835Z,21.50
2023-01-09T18:44:18.372Z,18.40
2023-01-09T18:46:47.372Z,22.70
2023-01-09T18:49:14.945Z,19.40
2023-01-09T18:51:43.640Z,19.60
2023-01-09T18:54:12.344Z,22.30
2023-01-09T18:56:40.464Z,19.80
2023-01-09T18:59:09.729Z,19.80
2023-01-09T19:01:36.972Z,23.50
2023-01-09T19:04:04.680Z,19.90
2023-01-09T19:06:32.051Z,20.30
2023-01-09T19:08:59.812Z,21.30
2023-01-09T19:11:26.856Z,19.80
2023-01-09T19:13:54.020Z,20.60
2023-01-09T19:16:21.440Z,21.10
2023-01-09T19:18:48.648Z,20.60
2023-01-09T19:21:22.409Z,21.60
2023-01-09T19:23:50.163Z,21.60
2023-01-09T19:26:20.964Z,21.80
2023-01-09T19:28:48.509Z,21.60
2023-01-09T19:31:16.470Z,24.80
2023-01-09T19:33:46.530Z,21.30
2023-01-09T19:38:41.149Z,22.50
2023-01-09T19:41:14.610Z,22.20
2023-01-09T19:43:42.498Z,22.80
2023-01-09T19:46:19.480Z,23.20
2023-01-09T19:48:47.872Z,23.70
2023-01-09T19:51:17.087Z,30.10
2023-01-09T19:53:44.884Z,28.40
2023-01-09T19:56:13.535Z,22.50
2023-01-09T19:58:42.143Z,21.60
2023-01-09T20:01:14.729Z,23.50
2023-01-09T20:03:46.932Z,24.80
2023-01-09T20:06:18.091Z,23.90
2023-01-09T20:08:49.749Z,23.30
2023-01-09T20:11:17.532Z,23.90
2023-01-09T20:13:45.541Z,22.70
2023-01-09T20:16:21.045Z,22.90
2023-01-09T20:18:48.953Z,22.30
2023-01-09T20:23:51.602Z,21.90
2023-01-09T20:26:20.039Z,22.40
2023-01-09T20:28:47.590Z,23.80
2023-01-09T20:31:17.111Z,23.70
2023-01-09T20:33:46.318Z,23.10
2023-01-09T20:36:14.141Z,23.10
2023-01-09T20:38:42.517Z,23.20
2023-01-09T20:41:23.194Z,24.00
2023-01-09T20:43:51.239Z,23.50
2023-01-09T20:46:20.085Z,22.40
2023-01-09T20:48:47.875Z,23.10
2023-01-09T20:51:15.002Z,22.80
2023-01-09T20:53:47.074Z,22.90
2023-01-09T20:56:14.531Z,21.80
2023-01-09T20:58:42.705Z,24.20
2023-01-09T21:01:13.720Z,23.50
2023-01-09T21:03:42.260Z,22.30
2023-01-09T21:06:13.044Z,22.50
2023-01-09T21:08:45.391Z,22.90
2023-01-09T21:11:12.829Z,22.30
2023-01-09T21:13:40.273Z,23.80
2023-01-09T21:16:13.849Z,23.10
2023-01-09T21:18:41.894Z,22.30
2023-01-09T21:21:13.539Z,23.60
2023-01-09T21:23:45.833Z,22.90
2023-01-09T21:26:14.268Z,22.10
2023-01-09T21:28:49.145Z,23.50
2023-01-09T21:31:19.531Z,24.20
2023-01-09T21:33:48.243Z,24.60
2023-01-09T21:36:16.103Z,24.10
2023-01-09T21:38:43.551Z,25.70
2023-01-09T21:41:29.544Z,24.90
2023-01-09T21:44:14.800Z,24.30
2023-01-09T21:46:57.841Z,24.90
2023-01-09T21:49:27.228Z,25.60
2023-01-09T21:51:55.325Z,25.90
2023-01-09T21:54:23.917Z,26.40
2023-01-09T21:56:52.726Z,30.10
2023-01-09T21:59:20.258Z,31.30
2023-01-09T22:01:49.392Z,30.10
2023-01-09T22:04:18.138Z,31.40
2023-01-09T22:06:45.512Z,31.20
2023-01-09T22:09:14.038Z,30.30
2023-01-09T22:11:43.312Z,30.10
2023-01-09T22:14:16.849Z,30.90
2023-01-09T22:16:47.834Z,30.50
2023-01-09T22:19:19.288Z,29.40
2023-01-09T22:21:46.964Z,28.50
2023-01-09T22:24:16.464Z,28.50
2023-01-09T22:26:44.049Z,27.40
2023-01-09T22:29:11.080Z,28.40
2023-01-09T22:31:40.322Z,28.10
2023-01-09T22:34:07.609Z,26.60
2023-01-09T22:36:34.785Z,28.40
2023-01-09T22:39:02.163Z,27.60
2023-01-09T22:41:30.749Z,28.90
2023-01-09T22:43:58.628Z,29.70
2023-01-09T22:46:26.626Z,29.90
2023-01-09T22:48:53.929Z,31.50
2023-01-09T22:51:22.237Z,28.30
2023-01-09T22:53:50.112Z,28.60
2023-01-09T22:56:22.291Z,30.50
2023-01-09T22:58:53.689Z,28.70
2023-01-09T23:01:22.439Z,33.10
2023-01-09T23:03:49.441Z,31.50
2023-01-09T23:06:19.178Z,30.10
2023-01-09T23:08:47.175Z,31.80
2023-01-09T23:11:38.568Z,33.00
2023-01-09T23:14:05.666Z,31.70
2023-01-09T23:16:32.610Z,29.90
2023-01-09T23:18:59.638Z,30.90
2023-01-09T23:21:26.671Z,30.20
2023-01-09T23:23:53.608Z,32.70
2023-01-09T23:26:20.467Z,33.60
2023-01-09T23:28:47.267Z,32.70
2023-01-09T23:31:15.601Z,30.80
2023-01-09T23:33:42.541Z,30.50
2023-01-09T23:36:09.515Z,31.00
2023-01-09T23:38:39.223Z,31.90
2023-01-09T23:41:07.504Z,32.00
2023-01-09T23:43:34.551Z,33.30
2023-01-09T23:46:02.033Z,32.30
2023-01-09T23:48:29.296Z,32.90
2023-01-09T23:50:56.223Z,30.50
2023-01-09T23:53:24.191Z,29.90
2023-01-09T23:55:56.914Z,32.50
2023-01-09T23:58:24.547Z,30.00
